sensor_id;sensor_type;location;lat;lon;timestamp;temperature;humidity
47520;DHT22;33252;48.122;11.538;2023-03-21T00:00:25;8.80;97.70
47520;DHT22;33252;48.122;11.538;2023-03-21T00:02:51;8.90;97.60
47520;DHT22;33252;48.122;11.538;2023-03-21T00:05:17;8.90;98.10
47520;DHT22;33252;48.122;11.538;2023-03-21T00:07:45;8.80;97.80
47520;DHT22;33252;48.122;11.538;2023-03-21T00:10:11;8.80;98.00
47520;DHT22;33252;48.122;11.538;2023-03-21T00:12:37;8.80;97.90
47520;DHT22;33252;48.122;11.538;2023-03-21T00:15:07;8.90;97.80
47520;DHT22;33252;48.122;11.538;2023-03-21T00:17:33;8.90;97.70
47520;DHT22;33252;48.122;11.538;2023-03-21T00:20:02;8.80;97.90
47520;DHT22;33252;48.122;11.538;2023-03-21T00:22:33;8.90;97.80
47520;DHT22;33252;48.122;11.538;2023-03-21T00:24:59;8.80;97.90
47520;DHT22;33252;48.122;11.538;2023-03-21T00:27:24;8.80;97.90
47520;DHT22;33252;48.122;11.538;2023-03-21T00:29:50;8.80;98.00
47520;DHT22;33252;48.122;11.538;2023-03-21T00:32:17;8.80;98.10
47520;DHT22;33252;48.122;11.538;2023-03-21T00:34:43;8.80;98.10
47520;DHT22;33252;48.122;11.538;2023-03-21T00:37:10;8.90;98.10
47520;DHT22;33252;48.122;11.538;2023-03-21T00:39:38;8.90;97.90
47520;DHT22;33252;48.122;11.538;2023-03-21T00:42:04;8.90;97.80
47520;DHT22;33252;48.122;11.538;2023-03-21T00:44:30;8.80;97.90
47520;DHT22;33252;48.122;11.538;2023-03-21T00:47:04;8.80;98.00
47520;DHT22;33252;48.122;11.538;2023-03-21T00:49:30;8.90;97.90
47520;DHT22;33252;48.122;11.538;2023-03-21T00:51:59;8.80;98.10
47520;DHT22;33252;48.122;11.538;2023-03-21T00:54:25;8.90;98.00
47520;DHT22;33252;48.122;11.538;2023-03-21T00:56:51;9.00;97.80
47520;DHT22;33252;48.122;11.538;2023-03-21T00:59:17;8.90;98.20
47520;DHT22;33252;48.122;11.538;2023-03-21T01:01:43;8.90;98.30
47520;DHT22;33252;48.122;11.538;2023-03-21T01:04:12;8.70;98.40
47520;DHT22;33252;48.122;11.538;2023-03-21T01:06:40;8.80;98.50
47520;DHT22;33252;48.122;11.538;2023-03-21T01:09:13;8.70;98.50
47520;DHT22;33252;48.122;11.538;2023-03-21T01:11:39;8.60;98.90
47520;DHT22;33252;48.122;11.538;2023-03-21T01:14:06;8.60;99.00
47520;DHT22;33252;48.122;11.538;2023-03-21T01:16:32;8.70;98.70
47520;DHT22;33252;48.122;11.538;2023-03-21T01:18:58;8.80;98.70
47520;DHT22;33252;48.122;11.538;2023-03-21T01:21:24;8.70;98.70
47520;DHT22;33252;48.122;11.538;2023-03-21T01:23:52;8.70;98.70
47520;DHT22;33252;48.122;11.538;2023-03-21T01:26:18;8.70;98.60
47520;DHT22;33252;48.122;11.538;2023-03-21T01:28:45;8.70;98.70
47520;DHT22;33252;48.122;11.538;2023-03-21T01:31:14;8.70;98.80
47520;DHT22;33252;48.122;11.538;2023-03-21T01:33:40;8.70;98.80
47520;DHT22;33252;48.122;11.538;2023-03-21T01:36:07;8.70;99.00
47520;DHT22;33252;48.122;11.538;2023-03-21T01:38:33;8.70;98.90
47520;DHT22;33252;48.122;11.538;2023-03-21T01:41:00;8.70;98.80
47520;DHT22;33252;48.122;11.538;2023-03-21T01:48:40;8.70;99.10
47520;DHT22;33252;48.122;11.538;2023-03-21T01:51:10;8.60;99.00
47520;DHT22;33252;48.122;11.538;2023-03-21T01:53:38;8.60;99.00
47520;DHT22;33252;48.122;11.538;2023-03-21T01:56:17;8.60;99.20
47520;DHT22;33252;48.122;11.538;2023-03-21T01:58:45;8.60;99.10
47520;DHT22;33252;48.122;11.538;2023-03-21T02:01:11;8.60;99.10
47520;DHT22;33252;48.122;11.538;2023-03-21T02:03:42;8.50;99.20
47520;DHT22;33252;48.122;11.538;2023-03-21T02:06:42;8.50;99.40
47520;DHT22;33252;48.122;11.538;2023-03-21T02:09:12;8.50;99.30
47520;DHT22;33252;48.122;11.538;2023-03-21T02:11:39;8.50;99.40
47520;DHT22;33252;48.122;11.538;2023-03-21T02:14:05;8.60;99.90
47520;DHT22;33252;48.122;11.538;2023-03-21T02:16:40;8.70;99.50
47520;DHT22;33252;48.122;11.538;2023-03-21T02:24:52;8.40;99.80
47520;DHT22;33252;48.122;11.538;2023-03-21T02:27:23;8.50;99.70
47520;DHT22;33252;48.122;11.538;2023-03-21T02:38:07;8.70;99.60
47520;DHT22;33252;48.122;11.538;2023-03-21T02:43:17;8.70;99.40
47520;DHT22;33252;48.122;11.538;2023-03-21T02:45:48;8.60;99.80
47520;DHT22;33252;48.122;11.538;2023-03-21T02:48:20;8.70;99.70
47520;DHT22;33252;48.122;11.538;2023-03-21T02:50:51;8.60;99.60
47520;DHT22;33252;48.122;11.538;2023-03-21T02:53:20;8.60;99.60
47520;DHT22;33252;48.122;11.538;2023-03-21T02:55:48;8.60;99.40
47520;DHT22;33252;48.122;11.538;2023-03-21T02:58:19;8.60;99.80
47520;DHT22;33252;48.122;11.538;2023-03-21T03:00:46;8.70;99.50
47520;DHT22;33252;48.122;11.538;2023-03-21T03:03:13;8.70;99.40
47520;DHT22;33252;48.122;11.538;2023-03-21T03:05:49;8.70;99.10
47520;DHT22;33252;48.122;11.538;2023-03-21T03:16:47;8.80;99.10
47520;DHT22;33252;48.122;11.538;2023-03-21T03:19:35;8.80;99.20
47520;DHT22;33252;48.122;11.538;2023-03-21T03:22:09;8.80;99.20
47520;DHT22;33252;48.122;11.538;2023-03-21T03:24:59;8.80;99.10
47520;DHT22;33252;48.122;11.538;2023-03-21T03:27:29;8.80;99.10
47520;DHT22;33252;48.122;11.538;2023-03-21T03:29:59;8.70;99.30
47520;DHT22;33252;48.122;11.538;2023-03-21T03:32:43;8.70;99.20
47520;DHT22;33252;48.122;11.538;2023-03-21T03:35:13;8.70;99.10
47520;DHT22;33252;48.122;11.538;2023-03-21T03:37:41;8.80;99.00
47520;DHT22;33252;48.122;11.538;2023-03-21T03:40:10;8.70;99.30
47520;DHT22;33252;48.122;11.538;2023-03-21T03:42:52;8.70;99.40
47520;DHT22;33252;48.122;11.538;2023-03-21T03:45:20;8.60;99.40
47520;DHT22;33252;48.122;11.538;2023-03-21T03:50:32;8.50;99.40
47520;DHT22;33252;48.122;11.538;2023-03-21T03:53:13;8.60;99.30
47520;DHT22;33252;48.122;11.538;2023-03-21T03:55:42;8.60;99.40
47520;DHT22;33252;48.122;11.538;2023-03-21T03:58:07;8.70;99.30
47520;DHT22;33252;48.122;11.538;2023-03-21T04:00:33;8.70;99.30
47520;DHT22;33252;48.122;11.538;2023-03-21T04:03:00;8.70;99.40
47520;DHT22;33252;48.122;11.538;2023-03-21T04:05:26;8.60;99.40
47520;DHT22;33252;48.122;11.538;2023-03-21T04:07:52;8.60;99.50
47520;DHT22;33252;48.122;11.538;2023-03-21T04:10:19;8.50;99.80
47520;DHT22;33252;48.122;11.538;2023-03-21T04:12:46;8.60;99.90
47520;DHT22;33252;48.122;11.538;2023-03-21T04:15:12;8.60;99.70
47520;DHT22;33252;48.122;11.538;2023-03-21T04:17:38;8.60;99.80
47520;DHT22;33252;48.122;11.538;2023-03-21T04:20:07;8.60;99.90
47520;DHT22;33252;48.122;11.538;2023-03-21T04:22:33;8.60;99.90
47520;DHT22;33252;48.122;11.538;2023-03-21T04:24:59;8.70;99.60
47520;DHT22;33252;48.122;11.538;2023-03-21T04:27:29;8.70;99.60
47520;DHT22;33252;48.122;11.538;2023-03-21T04:29:55;8.70;99.60
47520;DHT22;33252;48.122;11.538;2023-03-21T04:32:21;8.60;99.50
47520;DHT22;33252;48.122;11.538;2023-03-21T04:34:50;8.70;99.60
47520;DHT22;33252;48.122;11.538;2023-03-21T04:37:20;8.70;99.50
47520;DHT22;33252;48.122;11.538;2023-03-21T04:39:48;8.70;99.50
47520;DHT22;33252;48.122;11.538;2023-03-21T04:42:14;8.60;99.60
47520;DHT22;33252;48.122;11.538;2023-03-21T04:44:41;8.60;99.80
47520;DHT22;33252;48.122;11.538;2023-03-21T04:47:07;8.60;99.80
47520;DHT22;33252;48.122;11.538;2023-03-21T04:49:33;8.60;99.70
47520;DHT22;33252;48.122;11.538;2023-03-21T04:51:58;8.60;99.70
47520;DHT22;33252;48.122;11.538;2023-03-21T04:54:24;8.60;99.50
47520;DHT22;33252;48.122;11.538;2023-03-21T04:56:50;8.50;99.90
47520;DHT22;33252;48.122;11.538;2023-03-21T04:59:17;8.60;99.90
47520;DHT22;33252;48.122;11.538;2023-03-21T05:01:43;8.60;99.70
47520;DHT22;33252;48.122;11.538;2023-03-21T05:04:11;8.50;99.90
47520;DHT22;33252;48.122;11.538;2023-03-21T05:06:37;8.50;99.90
47520;DHT22;33252;48.122;11.538;2023-03-21T05:09:04;8.60;99.90
47520;DHT22;33252;48.122;11.538;2023-03-21T05:11:32;8.60;99.90
47520;DHT22;33252;48.122;11.538;2023-03-21T05:14:00;8.60;99.90
47520;DHT22;33252;48.122;11.538;2023-03-21T05:16:26;8.60;99.70
47520;DHT22;33252;48.122;11.538;2023-03-21T05:18:56;8.60;99.70
47520;DHT22;33252;48.122;11.538;2023-03-21T05:21:24;8.60;99.60
47520;DHT22;33252;48.122;11.538;2023-03-21T05:23:49;8.60;99.70
47520;DHT22;33252;48.122;11.538;2023-03-21T05:26:22;8.50;99.90
47520;DHT22;33252;48.122;11.538;2023-03-21T05:28:48;8.60;99.90
47520;DHT22;33252;48.122;11.538;2023-03-21T05:31:15;8.60;99.80
47520;DHT22;33252;48.122;11.538;2023-03-21T05:33:44;8.60;99.70
47520;DHT22;33252;48.122;11.538;2023-03-21T05:36:10;8.60;99.60
47520;DHT22;33252;48.122;11.538;2023-03-21T05:38:37;8.70;99.50
47520;DHT22;33252;48.122;11.538;2023-03-21T05:41:03;8.60;99.60
47520;DHT22;33252;48.122;11.538;2023-03-21T05:43:29;8.60;99.90
47520;DHT22;33252;48.122;11.538;2023-03-21T05:45:54;8.60;99.70
47520;DHT22;33252;48.122;11.538;2023-03-21T05:48:20;8.70;99.60
47520;DHT22;33252;48.122;11.538;2023-03-21T05:50:45;8.70;99.60
47520;DHT22;33252;48.122;11.538;2023-03-21T05:53:11;8.60;99.40
47520;DHT22;33252;48.122;11.538;2023-03-21T05:55:38;8.60;99.70
47520;DHT22;33252;48.122;11.538;2023-03-21T05:58:04;8.70;99.70
47520;DHT22;33252;48.122;11.538;2023-03-21T06:00:30;8.70;99.40
47520;DHT22;33252;48.122;11.538;2023-03-21T06:02:55;8.70;99.50
47520;DHT22;33252;48.122;11.538;2023-03-21T06:05:21;8.70;99.40
47520;DHT22;33252;48.122;11.538;2023-03-21T06:07:47;8.60;99.70
47520;DHT22;33252;48.122;11.538;2023-03-21T06:10:12;8.70;99.80
47520;DHT22;33252;48.122;11.538;2023-03-21T06:12:38;8.70;99.70
47520;DHT22;33252;48.122;11.538;2023-03-21T06:15:05;8.60;99.80
47520;DHT22;33252;48.122;11.538;2023-03-21T06:17:33;8.50;99.80
47520;DHT22;33252;48.122;11.538;2023-03-21T06:19:59;8.60;99.60
47520;DHT22;33252;48.122;11.538;2023-03-21T06:22:30;8.60;99.90
47520;DHT22;33252;48.122;11.538;2023-03-21T06:24:55;8.60;99.90
47520;DHT22;33252;48.122;11.538;2023-03-21T06:27:21;8.70;99.90
47520;DHT22;33252;48.122;11.538;2023-03-21T06:29:47;8.70;99.90
47520;DHT22;33252;48.122;11.538;2023-03-21T06:32:13;8.80;99.60
47520;DHT22;33252;48.122;11.538;2023-03-21T06:34:38;8.80;99.60
47520;DHT22;33252;48.122;11.538;2023-03-21T06:37:04;8.90;99.70
47520;DHT22;33252;48.122;11.538;2023-03-21T06:39:30;8.90;99.80
47520;DHT22;33252;48.122;11.538;2023-03-21T06:41:58;8.80;99.50
47520;DHT22;33252;48.122;11.538;2023-03-21T06:44:24;8.90;99.50
47520;DHT22;33252;48.122;11.538;2023-03-21T06:46:52;9.00;99.20
47520;DHT22;33252;48.122;11.538;2023-03-21T06:49:19;9.00;99.10
47520;DHT22;33252;48.122;11.538;2023-03-21T06:51:45;9.00;99.20
47520;DHT22;33252;48.122;11.538;2023-03-21T06:54:11;9.00;99.10
47520;DHT22;33252;48.122;11.538;2023-03-21T06:56:39;9.00;98.80
47520;DHT22;33252;48.122;11.538;2023-03-21T06:59:05;9.00;98.80
47520;DHT22;33252;48.122;11.538;2023-03-21T07:01:31;9.00;98.60
47520;DHT22;33252;48.122;11.538;2023-03-21T07:03:57;9.10;98.20
47520;DHT22;33252;48.122;11.538;2023-03-21T07:06:25;9.10;98.10
47520;DHT22;33252;48.122;11.538;2023-03-21T07:08:52;9.10;98.20
47520;DHT22;33252;48.122;11.538;2023-03-21T07:11:18;9.20;98.60
47520;DHT22;33252;48.122;11.538;2023-03-21T07:13:44;9.20;98.50
47520;DHT22;33252;48.122;11.538;2023-03-21T07:16:10;9.20;98.40
47520;DHT22;33252;48.122;11.538;2023-03-21T07:18:36;9.10;98.40
47520;DHT22;33252;48.122;11.538;2023-03-21T07:21:03;9.20;98.40
47520;DHT22;33252;48.122;11.538;2023-03-21T07:23:28;9.20;98.30
47520;DHT22;33252;48.122;11.538;2023-03-21T07:25:55;9.20;98.50
47520;DHT22;33252;48.122;11.538;2023-03-21T07:28:22;9.20;98.50
47520;DHT22;33252;48.122;11.538;2023-03-21T07:30:53;9.30;98.40
47520;DHT22;33252;48.122;11.538;2023-03-21T07:33:19;9.40;98.10
47520;DHT22;33252;48.122;11.538;2023-03-21T07:35:45;9.30;98.00
47520;DHT22;33252;48.122;11.538;2023-03-21T07:38:11;9.30;97.90
47520;DHT22;33252;48.122;11.538;2023-03-21T07:40:39;9.30;98.00
47520;DHT22;33252;48.122;11.538;2023-03-21T07:43:04;9.20;98.00
47520;DHT22;33252;48.122;11.538;2023-03-21T07:45:30;9.30;98.10
47520;DHT22;33252;48.122;11.538;2023-03-21T07:47:56;9.40;97.80
47520;DHT22;33252;48.122;11.538;2023-03-21T07:50:21;9.50;97.60
47520;DHT22;33252;48.122;11.538;2023-03-21T07:52:47;9.50;97.80
47520;DHT22;33252;48.122;11.538;2023-03-21T07:55:13;9.50;97.70
47520;DHT22;33252;48.122;11.538;2023-03-21T07:57:41;9.70;97.80
47520;DHT22;33252;48.122;11.538;2023-03-21T08:00:08;9.50;96.70
47520;DHT22;33252;48.122;11.538;2023-03-21T08:02:33;9.60;96.90
47520;DHT22;33252;48.122;11.538;2023-03-21T08:04:59;9.70;97.00
47520;DHT22;33252;48.122;11.538;2023-03-21T08:07:25;9.70;96.70
47520;DHT22;33252;48.122;11.538;2023-03-21T08:09:52;9.80;96.30
47520;DHT22;33252;48.122;11.538;2023-03-21T08:12:17;9.70;96.30
47520;DHT22;33252;48.122;11.538;2023-03-21T08:14:43;9.80;96.00
47520;DHT22;33252;48.122;11.538;2023-03-21T08:17:09;9.70;96.00
47520;DHT22;33252;48.122;11.538;2023-03-21T08:19:35;9.90;96.10
47520;DHT22;33252;48.122;11.538;2023-03-21T08:22:02;10.00;96.80
47520;DHT22;33252;48.122;11.538;2023-03-21T08:24:30;10.10;96.50
47520;DHT22;33252;48.122;11.538;2023-03-21T08:26:56;10.00;96.10
47520;DHT22;33252;48.122;11.538;2023-03-21T08:29:21;10.10;96.40
47520;DHT22;33252;48.122;11.538;2023-03-21T08:31:49;10.20;96.10
47520;DHT22;33252;48.122;11.538;2023-03-21T08:34:15;10.40;95.90
47520;DHT22;33252;48.122;11.538;2023-03-21T08:36:42;10.40;95.90
47520;DHT22;33252;48.122;11.538;2023-03-21T08:39:08;10.50;95.80
47520;DHT22;33252;48.122;11.538;2023-03-21T08:41:36;10.50;95.50
47520;DHT22;33252;48.122;11.538;2023-03-21T08:44:03;10.60;95.50
47520;DHT22;33252;48.122;11.538;2023-03-21T08:46:29;10.60;95.60
47520;DHT22;33252;48.122;11.538;2023-03-21T08:48:55;10.60;95.00
47520;DHT22;33252;48.122;11.538;2023-03-21T08:51:21;10.60;94.90
47520;DHT22;33252;48.122;11.538;2023-03-21T08:53:47;10.70;94.50
47520;DHT22;33252;48.122;11.538;2023-03-21T08:56:15;10.70;94.10
47520;DHT22;33252;48.122;11.538;2023-03-21T08:58:41;10.70;94.30
47520;DHT22;33252;48.122;11.538;2023-03-21T09:01:07;10.70;94.10
47520;DHT22;33252;48.122;11.538;2023-03-21T09:03:36;10.80;93.70
47520;DHT22;33252;48.122;11.538;2023-03-21T09:06:02;10.80;93.70
47520;DHT22;33252;48.122;11.538;2023-03-21T09:08:29;10.80;94.00
47520;DHT22;33252;48.122;11.538;2023-03-21T09:10:55;10.90;93.80
47520;DHT22;33252;48.122;11.538;2023-03-21T09:13:22;10.90;94.20
47520;DHT22;33252;48.122;11.538;2023-03-21T09:15:48;11.00;93.60
47520;DHT22;33252;48.122;11.538;2023-03-21T09:18:14;11.00;93.50
47520;DHT22;33252;48.122;11.538;2023-03-21T09:20:46;11.00;93.50
47520;DHT22;33252;48.122;11.538;2023-03-21T09:23:13;11.10;93.80
47520;DHT22;33252;48.122;11.538;2023-03-21T09:25:44;11.20;93.60
47520;DHT22;33252;48.122;11.538;2023-03-21T09:28:10;11.10;93.40
47520;DHT22;33252;48.122;11.538;2023-03-21T09:30:36;11.00;93.30
47520;DHT22;33252;48.122;11.538;2023-03-21T09:33:04;11.00;93.70
47520;DHT22;33252;48.122;11.538;2023-03-21T09:35:37;11.20;93.50
47520;DHT22;33252;48.122;11.538;2023-03-21T09:38:03;11.10;93.20
47520;DHT22;33252;48.122;11.538;2023-03-21T09:51:04;11.50;92.30
47520;DHT22;33252;48.122;11.538;2023-03-21T09:53:36;11.60;91.80
47520;DHT22;33252;48.122;11.538;2023-03-21T09:56:04;11.60;92.10
47520;DHT22;33252;48.122;11.538;2023-03-21T09:58:42;11.50;92.00
47520;DHT22;33252;48.122;11.538;2023-03-21T10:03:47;11.60;91.80
47520;DHT22;33252;48.122;11.538;2023-03-21T10:06:18;11.70;91.60
47520;DHT22;33252;48.122;11.538;2023-03-21T10:08:47;11.80;91.50
47520;DHT22;33252;48.122;11.538;2023-03-21T10:11:24;11.80;91.50
47520;DHT22;33252;48.122;11.538;2023-03-21T10:14:02;11.80;91.50
47520;DHT22;33252;48.122;11.538;2023-03-21T10:16:36;11.90;91.80
47520;DHT22;33252;48.122;11.538;2023-03-21T10:19:11;12.10;91.80
47520;DHT22;33252;48.122;11.538;2023-03-21T10:21:39;12.20;91.30
47520;DHT22;33252;48.122;11.538;2023-03-21T10:24:16;12.20;91.60
47520;DHT22;33252;48.122;11.538;2023-03-21T10:26:44;12.30;91.50
47520;DHT22;33252;48.122;11.538;2023-03-21T10:29:13;12.40;90.90
47520;DHT22;33252;48.122;11.538;2023-03-21T10:31:40;12.30;90.70
47520;DHT22;33252;48.122;11.538;2023-03-21T10:34:40;12.30;90.90
47520;DHT22;33252;48.122;11.538;2023-03-21T10:37:07;12.30;90.60
47520;DHT22;33252;48.122;11.538;2023-03-21T10:39:38;12.20;90.80
47520;DHT22;33252;48.122;11.538;2023-03-21T10:42:04;12.30;91.20
47520;DHT22;33252;48.122;11.538;2023-03-21T10:44:33;12.50;90.90
47520;DHT22;33252;48.122;11.538;2023-03-21T10:47:07;12.50;90.80
47520;DHT22;33252;48.122;11.538;2023-03-21T10:49:35;12.60;90.70
47520;DHT22;33252;48.122;11.538;2023-03-21T10:52:04;12.50;90.30
47520;DHT22;33252;48.122;11.538;2023-03-21T10:54:33;12.40;90.60
47520;DHT22;33252;48.122;11.538;2023-03-21T10:57:11;12.40;90.50
47520;DHT22;33252;48.122;11.538;2023-03-21T11:02:06;12.80;90.90
47520;DHT22;33252;48.122;11.538;2023-03-21T11:04:37;12.80;90.10
47520;DHT22;33252;48.122;11.538;2023-03-21T11:07:04;12.70;90.50
47520;DHT22;33252;48.122;11.538;2023-03-21T11:09:53;12.80;91.10
47520;DHT22;33252;48.122;11.538;2023-03-21T11:12:35;13.00;90.50
47520;DHT22;33252;48.122;11.538;2023-03-21T11:15:31;13.10;90.40
47520;DHT22;33252;48.122;11.538;2023-03-21T11:17:58;13.20;89.70
47520;DHT22;33252;48.122;11.538;2023-03-21T11:20:28;13.20;89.50
47520;DHT22;33252;48.122;11.538;2023-03-21T11:22:55;13.40;90.00
47520;DHT22;33252;48.122;11.538;2023-03-21T11:25:31;13.50;89.40
47520;DHT22;33252;48.122;11.538;2023-03-21T11:27:58;13.50;89.00
47520;DHT22;33252;48.122;11.538;2023-03-21T11:30:29;13.50;88.50
47520;DHT22;33252;48.122;11.538;2023-03-21T11:32:56;13.50;89.30
47520;DHT22;33252;48.122;11.538;2023-03-21T11:35:24;13.30;89.60
47520;DHT22;33252;48.122;11.538;2023-03-21T11:37:54;13.30;89.30
47520;DHT22;33252;48.122;11.538;2023-03-21T11:40:22;13.40;89.50
47520;DHT22;33252;48.122;11.538;2023-03-21T11:42:50;13.30;88.00
47520;DHT22;33252;48.122;11.538;2023-03-21T11:45:22;13.20;88.80
47520;DHT22;33252;48.122;11.538;2023-03-21T11:47:50;13.40;88.40
47520;DHT22;33252;48.122;11.538;2023-03-21T11:50:39;13.30;89.00
47520;DHT22;33252;48.122;11.538;2023-03-21T11:53:30;13.50;88.40
47520;DHT22;33252;48.122;11.538;2023-03-21T12:01:26;13.90;87.50
47520;DHT22;33252;48.122;11.538;2023-03-21T12:04:11;13.90;86.60
47520;DHT22;33252;48.122;11.538;2023-03-21T12:07:08;14.00;87.70
47520;DHT22;33252;48.122;11.538;2023-03-21T12:09:45;14.20;85.00
47520;DHT22;33252;48.122;11.538;2023-03-21T12:17:52;13.70;85.60
47520;DHT22;33252;48.122;11.538;2023-03-21T12:23:18;13.90;87.10
47520;DHT22;33252;48.122;11.538;2023-03-21T12:26:02;14.20;86.80
47520;DHT22;33252;48.122;11.538;2023-03-21T12:32:17;14.60;81.50
47520;DHT22;33252;48.122;11.538;2023-03-21T12:43:11;16.60;76.00
47520;DHT22;33252;48.122;11.538;2023-03-21T12:45:45;17.20;72.80
47520;DHT22;33252;48.122;11.538;2023-03-21T12:51:00;18.90;69.10
47520;DHT22;33252;48.122;11.538;2023-03-21T12:53:33;18.80;68.40
47520;DHT22;33252;48.122;11.538;2023-03-21T12:56:04;18.90;68.80
47520;DHT22;33252;48.122;11.538;2023-03-21T12:58:38;18.50;69.00
47520;DHT22;33252;48.122;11.538;2023-03-21T13:01:08;18.50;69.90
47520;DHT22;33252;48.122;11.538;2023-03-21T13:03:44;19.20;68.20
47520;DHT22;33252;48.122;11.538;2023-03-21T13:06:16;19.60;68.60
47520;DHT22;33252;48.122;11.538;2023-03-21T13:08:51;20.30;66.80
47520;DHT22;33252;48.122;11.538;2023-03-21T13:11:22;20.40;65.90
47520;DHT22;33252;48.122;11.538;2023-03-21T13:14:11;20.30;67.30
47520;DHT22;33252;48.122;11.538;2023-03-21T13:19:25;19.50;67.70
47520;DHT22;33252;48.122;11.538;2023-03-21T13:27:03;19.60;69.20
47520;DHT22;33252;48.122;11.538;2023-03-21T13:34:57;20.60;66.10
47520;DHT22;33252;48.122;11.538;2023-03-21T13:37:28;19.90;67.20
47520;DHT22;33252;48.122;11.538;2023-03-21T13:39:59;19.80;66.80
47520;DHT22;33252;48.122;11.538;2023-03-21T13:42:31;20.50;65.50
47520;DHT22;33252;48.122;11.538;2023-03-21T13:45:00;20.00;65.30
47520;DHT22;33252;48.122;11.538;2023-03-21T13:53:08;19.90;62.60
47520;DHT22;33252;48.122;11.538;2023-03-21T13:55:34;20.10;63.10
47520;DHT22;33252;48.122;11.538;2023-03-21T13:58:48;19.70;63.90
47520;DHT22;33252;48.122;11.538;2023-03-21T14:04:20;17.70;69.10
47520;DHT22;33252;48.122;11.538;2023-03-21T14:07:04;17.50;68.80
47520;DHT22;33252;48.122;11.538;2023-03-21T14:09:35;17.50;69.40
47520;DHT22;33252;48.122;11.538;2023-03-21T14:12:04;17.40;69.60
47520;DHT22;33252;48.122;11.538;2023-03-21T14:14:38;17.60;70.00
47520;DHT22;33252;48.122;11.538;2023-03-21T14:17:14;17.90;69.00
47520;DHT22;33252;48.122;11.538;2023-03-21T14:19:40;18.40;67.40
47520;DHT22;33252;48.122;11.538;2023-03-21T14:22:12;19.60;65.70
47520;DHT22;33252;48.122;11.538;2023-03-21T14:24:38;19.40;65.30
47520;DHT22;33252;48.122;11.538;2023-03-21T14:27:05;18.70;66.00
47520;DHT22;33252;48.122;11.538;2023-03-21T14:29:34;18.60;67.80
47520;DHT22;33252;48.122;11.538;2023-03-21T14:32:00;20.00;64.10
47520;DHT22;33252;48.122;11.538;2023-03-21T14:34:29;20.70;62.80
47520;DHT22;33252;48.122;11.538;2023-03-21T14:36:56;20.30;61.60
47520;DHT22;33252;48.122;11.538;2023-03-21T14:39:26;20.40;62.60
47520;DHT22;33252;48.122;11.538;2023-03-21T14:41:54;20.70;61.20
47520;DHT22;33252;48.122;11.538;2023-03-21T14:44:37;20.30;62.00
47520;DHT22;33252;48.122;11.538;2023-03-21T14:47:15;20.60;62.60
47520;DHT22;33252;48.122;11.538;2023-03-21T14:49:41;20.70;63.40
47520;DHT22;33252;48.122;11.538;2023-03-21T14:52:11;20.20;62.90
47520;DHT22;33252;48.122;11.538;2023-03-21T14:54:40;19.80;63.50
47520;DHT22;33252;48.122;11.538;2023-03-21T14:57:10;19.50;64.30
47520;DHT22;33252;48.122;11.538;2023-03-21T14:59:38;18.20;66.50
47520;DHT22;33252;48.122;11.538;2023-03-21T15:02:22;17.50;67.30
47520;DHT22;33252;48.122;11.538;2023-03-21T15:04:52;17.10;68.20
47520;DHT22;33252;48.122;11.538;2023-03-21T15:07:31;16.90;68.60
47520;DHT22;33252;48.122;11.538;2023-03-21T15:09:59;16.90;70.10
47520;DHT22;33252;48.122;11.538;2023-03-21T15:12:28;17.40;69.60
47520;DHT22;33252;48.122;11.538;2023-03-21T15:14:54;17.50;68.60
47520;DHT22;33252;48.122;11.538;2023-03-21T15:17:21;17.20;70.00
47520;DHT22;33252;48.122;11.538;2023-03-21T15:19:48;17.40;70.50
47520;DHT22;33252;48.122;11.538;2023-03-21T15:22:38;17.50;69.70
47520;DHT22;33252;48.122;11.538;2023-03-21T15:25:07;17.20;70.50
47520;DHT22;33252;48.122;11.538;2023-03-21T15:27:42;16.90;72.10
47520;DHT22;33252;48.122;11.538;2023-03-21T15:30:22;16.70;72.20
47520;DHT22;33252;48.122;11.538;2023-03-21T15:32:48;16.40;73.40
47520;DHT22;33252;48.122;11.538;2023-03-21T15:35:21;16.10;74.00
47520;DHT22;33252;48.122;11.538;2023-03-21T15:37:57;16.00;74.60
47520;DHT22;33252;48.122;11.538;2023-03-21T15:40:32;16.00;74.40
47520;DHT22;33252;48.122;11.538;2023-03-21T15:43:18;15.90;74.20
47520;DHT22;33252;48.122;11.538;2023-03-21T15:45:54;15.80;74.50
47520;DHT22;33252;48.122;11.538;2023-03-21T15:48:25;15.70;75.30
47520;DHT22;33252;48.122;11.538;2023-03-21T15:51:05;15.70;75.40
47520;DHT22;33252;48.122;11.538;2023-03-21T15:53:36;15.70;75.60
47520;DHT22;33252;48.122;11.538;2023-03-21T15:56:04;15.60;76.30
47520;DHT22;33252;48.122;11.538;2023-03-21T15:58:35;15.50;76.50
47520;DHT22;33252;48.122;11.538;2023-03-21T16:01:05;15.40;76.90
47520;DHT22;33252;48.122;11.538;2023-03-21T16:03:36;15.40;77.60
47520;DHT22;33252;48.122;11.538;2023-03-21T16:11:26;15.20;78.80
47520;DHT22;33252;48.122;11.538;2023-03-21T16:13:53;15.10;78.00
47520;DHT22;33252;48.122;11.538;2023-03-21T16:16:25;15.10;78.50
47520;DHT22;33252;48.122;11.538;2023-03-21T16:18:52;15.10;78.70
47520;DHT22;33252;48.122;11.538;2023-03-21T16:21:20;15.00;78.80
47520;DHT22;33252;48.122;11.538;2023-03-21T16:23:47;15.00;79.10
47520;DHT22;33252;48.122;11.538;2023-03-21T16:26:21;15.00;79.50
47520;DHT22;33252;48.122;11.538;2023-03-21T16:28:47;15.00;79.30
47520;DHT22;33252;48.122;11.538;2023-03-21T16:31:19;14.90;80.00
47520;DHT22;33252;48.122;11.538;2023-03-21T16:33:45;14.90;79.80
47520;DHT22;33252;48.122;11.538;2023-03-21T16:36:32;14.80;80.30
47520;DHT22;33252;48.122;11.538;2023-03-21T16:39:01;14.80;80.50
47520;DHT22;33252;48.122;11.538;2023-03-21T16:41:30;14.80;80.70
47520;DHT22;33252;48.122;11.538;2023-03-21T16:43:55;14.80;81.20
47520;DHT22;33252;48.122;11.538;2023-03-21T16:46:23;14.80;80.90
47520;DHT22;33252;48.122;11.538;2023-03-21T16:48:52;14.70;81.10
47520;DHT22;33252;48.122;11.538;2023-03-21T16:51:23;14.70;81.30
47520;DHT22;33252;48.122;11.538;2023-03-21T16:53:55;14.70;80.70
47520;DHT22;33252;48.122;11.538;2023-03-21T16:56:26;14.60;81.40
47520;DHT22;33252;48.122;11.538;2023-03-21T16:58:54;14.70;81.80
47520;DHT22;33252;48.122;11.538;2023-03-21T17:01:21;14.60;81.30
47520;DHT22;33252;48.122;11.538;2023-03-21T17:03:52;14.50;81.10
47520;DHT22;33252;48.122;11.538;2023-03-21T17:06:20;14.50;81.50
47520;DHT22;33252;48.122;11.538;2023-03-21T17:08:47;14.50;82.10
47520;DHT22;33252;48.122;11.538;2023-03-21T17:11:15;14.40;81.90
47520;DHT22;33252;48.122;11.538;2023-03-21T17:13:44;14.40;82.10
47520;DHT22;33252;48.122;11.538;2023-03-21T17:16:16;14.40;82.70
47520;DHT22;33252;48.122;11.538;2023-03-21T17:18:43;14.40;82.30
47520;DHT22;33252;48.122;11.538;2023-03-21T17:21:17;14.30;82.30